Time;durP1;ratioP1;P1;durP2;ratioP2;P2;SDS_P1;SDS_P2;PMS_P1;PMS_P2;Temp;Humidity;BMP_temperature;BMP_pressure;BME280_temperature;BME280_humidity;BME280_pressure;Samples;Min_cycle;Max_cycle;Signal;HPM_P1;HPM_P2
2021/04/14 00:01:43;;;;;;;5.03;2.00;;;4.60;1.00;;;;;;5004101;28;21378;-81
2021/04/14 00:04:09;;;;;;;2.92;1.58;;;4.50;1.00;;;;;;5009703;28;20231;-82
2021/04/14 00:06:39;;;;;;;6.40;3.10;;;4.50;1.00;;;;;;5010508;28;20258;-82
2021/04/14 00:09:15;;;;;;;6.38;2.00;;;4.40;1.00;;;;;;5022881;28;21217;-80
2021/04/14 00:11:48;;;;;;;5.38;1.90;;;4.40;1.00;;;;;;5010972;28;20205;-82
2021/04/14 00:14:23;;;;;;;4.90;2.00;;;4.40;1.00;;;;;;5027538;28;21705;-82
2021/04/14 00:16:53;;;;;;;4.45;1.90;;;4.30;1.00;;;;;;5008414;28;20237;-85
2021/04/14 00:19:23;;;;;;;3.55;1.75;;;4.30;1.00;;;;;;5026741;28;20317;-81
2021/04/14 00:21:55;;;;;;;3.95;1.70;;;4.30;1.00;;;;;;5003592;28;20234;-82
2021/04/14 00:24:21;;;;;;;10.23;2.50;;;4.30;1.00;;;;;;5001063;28;20230;-81
2021/04/14 00:26:54;;;;;;;1.77;1.50;;;4.30;1.00;;;;;;5032994;28;20343;-82
2021/04/14 00:29:23;;;;;;;5.72;1.83;;;4.30;1.00;;;;;;5002093;28;20262;-82
2021/04/14 00:31:49;;;;;;;7.38;2.33;;;4.20;1.00;;;;;;5011726;28;20246;-81
2021/04/14 00:34:17;;;;;;;5.55;2.17;;;4.20;1.00;;;;;;5006757;28;20226;-84
2021/04/14 00:36:45;;;;;;;10.20;1.98;;;4.20;1.00;;;;;;5071540;22;20323;-81
2021/04/14 00:39:19;;;;;;;9.25;2.05;;;4.20;1.00;;;;;;5064867;28;21462;-81
2021/04/14 00:41:47;;;;;;;8.18;2.20;;;4.20;1.00;;;;;;5057688;28;20225;-81
2021/04/14 00:44:18;;;;;;;3.58;1.70;;;4.10;1.00;;;;;;5065587;28;20221;-84
2021/04/14 00:46:47;;;;;;;7.18;2.08;;;4.10;1.00;;;;;;5050261;28;20308;-82
2021/04/14 00:49:13;;;;;;;4.70;1.60;;;4.10;1.00;;;;;;5038389;28;20256;-81
2021/04/14 00:51:41;;;;;;;4.45;2.30;;;4.10;1.00;;;;;;5047509;28;20289;-83
2021/04/14 00:54:09;;;;;;;6.10;2.63;;;4.10;1.00;;;;;;5051249;28;20221;-82
2021/04/14 01:01:00;;;;;;;6.60;2.00;;;4.00;1.00;;;;;;5055888;28;20277;-80
2021/04/14 01:07:40;;;;;;;3.53;1.90;;;3.90;1.00;;;;;;5040160;28;20217;-82
2021/04/14 01:10:09;;;;;;;8.60;2.58;;;3.90;1.00;;;;;;5041951;28;20241;-82
2021/04/14 01:12:35;;;;;;;7.47;2.20;;;3.80;1.00;;;;;;5057373;28;20244;-84
2021/04/14 01:15:06;;;;;;;6.10;1.98;;;3.80;1.00;;;;;;5055978;28;20217;-82
2021/04/14 01:17:33;;;;;;;8.23;2.00;;;3.80;1.00;;;;;;5059653;28;20226;-82
2021/04/14 01:19:59;;;;;;;6.28;2.40;;;3.70;1.00;;;;;;5070636;28;20225;-82
2021/04/14 01:22:27;;;;;;;6.03;2.20;;;3.70;1.00;;;;;;5053085;28;20218;-84
2021/04/14 01:24:53;;;;;;;6.43;2.20;;;3.70;1.00;;;;;;5043328;28;21724;-82
2021/04/14 01:27:19;;;;;;;8.68;2.60;;;3.60;1.00;;;;;;5048072;28;20225;-82
2021/04/14 01:29:46;;;;;;;4.47;1.80;;;3.60;1.00;;;;;;5046693;28;20321;-83
2021/04/14 01:32:13;;;;;;;5.80;1.95;;;3.60;1.00;;;;;;5045133;28;20225;-82
2021/04/14 01:34:39;;;;;;;6.15;1.83;;;3.60;1.00;;;;;;5049308;28;20229;-82
2021/04/14 01:37:07;;;;;;;6.40;2.17;;;3.50;1.00;;;;;;5046483;28;21581;-80
2021/04/14 01:39:34;;;;;;;7.18;2.45;;;3.50;1.00;;;;;;5073178;28;20245;-81
2021/04/14 01:42:00;;;;;;;5.30;2.28;;;3.40;1.00;;;;;;5048499;28;20229;-82
2021/04/14 01:44:27;;;;;;;6.25;2.30;;;3.40;1.00;;;;;;5063181;28;20221;-83
2021/04/14 01:46:53;;;;;;;11.90;2.50;;;3.40;1.00;;;;;;5045363;28;20237;-80
2021/04/14 01:49:20;;;;;;;8.43;3.03;;;3.40;1.00;;;;;;5051714;28;20233;-81
2021/04/14 01:51:46;;;;;;;7.25;2.50;;;3.30;1.00;;;;;;5052594;28;20250;-82
2021/04/14 01:54:13;;;;;;;7.20;2.22;;;3.30;1.00;;;;;;5055870;28;20229;-82
2021/04/14 01:56:41;;;;;;;4.25;1.70;;;3.30;1.00;;;;;;5051668;28;20240;-80
2021/04/14 01:59:08;;;;;;;6.28;2.47;;;3.20;1.00;;;;;;5060324;28;20237;-82
2021/04/14 02:01:34;;;;;;;5.63;2.08;;;3.20;1.00;;;;;;5066754;28;20252;-81
2021/04/14 02:04:01;;;;;;;5.88;2.40;;;3.20;1.00;;;;;;5071602;28;20210;-81
2021/04/14 02:06:27;;;;;;;4.47;2.05;;;3.10;1.00;;;;;;5068273;28;20223;-82
2021/04/14 02:08:54;;;;;;;5.32;2.05;;;3.10;1.00;;;;;;5074542;28;20236;-81
2021/04/14 02:11:20;;;;;;;8.27;2.92;;;3.10;1.00;;;;;;5068931;28;20233;-81
2021/04/14 02:13:47;;;;;;;6.80;2.30;;;3.00;1.00;;;;;;5073334;28;20211;-82
2021/04/14 02:16:17;;;;;;;6.68;2.45;;;3.00;1.00;;;;;;5086813;28;20225;-81
2021/04/14 02:18:44;;;;;;;6.57;2.63;;;3.00;1.00;;;;;;5071026;28;20208;-81
2021/04/14 02:21:10;;;;;;;8.00;2.45;;;3.00;1.00;;;;;;5070349;28;20221;-80
2021/04/14 02:23:40;;;;;;;5.88;2.13;;;2.90;1.00;;;;;;5068796;28;20302;-79
2021/04/14 02:26:09;;;;;;;7.07;2.88;;;2.90;1.00;;;;;;5066012;28;20749;-80
2021/04/14 02:28:36;;;;;;;8.05;2.30;;;2.90;1.00;;;;;;5065369;28;20907;-78
2021/04/14 02:31:06;;;;;;;8.13;2.78;;;2.90;1.00;;;;;;5063704;28;20213;-80
2021/04/14 02:33:32;;;;;;;6.88;2.92;;;2.80;1.00;;;;;;5064396;28;20207;-81
2021/04/14 02:35:59;;;;;;;7.28;2.80;;;2.80;1.00;;;;;;5064487;28;20244;-80
2021/04/14 02:38:26;;;;;;;6.93;2.38;;;2.80;1.00;;;;;;5079656;28;20344;-81
2021/04/14 02:40:53;;;;;;;10.48;2.40;;;2.80;1.00;;;;;;5057639;28;20286;-81
2021/04/14 02:43:20;;;;;;;13.20;3.45;;;2.80;1.00;;;;;;5061361;28;20233;-81
2021/04/14 02:45:47;;;;;;;5.35;2.13;;;2.80;1.00;;;;;;5042267;28;20679;-81
2021/04/14 02:48:15;;;;;;;7.05;2.92;;;2.80;1.00;;;;;;5042589;28;20206;-80
2021/04/14 02:50:41;;;;;;;6.47;3.00;;;2.80;1.00;;;;;;5048606;28;20229;-81
2021/04/14 02:53:08;;;;;;;11.38;3.20;;;2.80;1.00;;;;;;5055500;28;20241;-83
2021/04/14 02:55:35;;;;;;;5.57;2.60;;;2.80;1.00;;;;;;5040764;28;20226;-81
2021/04/14 02:58:02;;;;;;;10.85;2.78;;;2.70;1.00;;;;;;5037779;28;20233;-81
2021/04/14 03:00:30;;;;;;;9.07;2.75;;;2.80;1.00;;;;;;5041232;28;20218;-81
2021/04/14 03:02:57;;;;;;;8.60;2.90;;;2.80;1.00;;;;;;5037895;28;20211;-81
2021/04/14 03:05:28;;;;;;;8.35;3.13;;;2.70;1.00;;;;;;5041618;28;20317;-81
2021/04/14 03:07:55;;;;;;;11.45;3.08;;;2.70;1.00;;;;;;5040525;28;21116;-83
2021/04/14 03:10:22;;;;;;;11.90;3.20;;;2.60;1.00;;;;;;5037707;28;21437;-81
2021/04/14 03:12:49;;;;;;;6.40;2.28;;;2.60;1.00;;;;;;5045340;28;20236;-82
2021/04/14 03:15:19;;;;;;;7.97;3.50;;;2.60;1.00;;;;;;5045955;28;20230;-80
2021/04/14 03:17:47;;;;;;;6.05;2.35;;;2.60;1.00;;;;;;5057525;28;20611;-81
2021/04/14 03:20:14;;;;;;;9.43;2.55;;;2.60;1.00;;;;;;5064641;28;20234;-80
2021/04/14 03:22:41;;;;;;;7.35;3.30;;;2.60;1.00;;;;;;5066811;28;20767;-81
2021/04/14 03:25:09;;;;;;;8.18;2.78;;;2.60;1.00;;;;;;5065872;28;20228;-79
2021/04/14 03:27:35;;;;;;;11.43;2.90;;;2.60;1.00;;;;;;5062958;28;20225;-79
2021/04/14 03:30:03;;;;;;;9.30;3.47;;;2.50;1.00;;;;;;5067860;28;20233;-82
2021/04/14 03:32:29;;;;;;;11.18;3.58;;;2.50;1.00;;;;;;5065170;28;20229;-82
2021/04/14 03:34:56;;;;;;;7.63;3.08;;;2.50;1.00;;;;;;5068248;28;20225;-82
2021/04/14 03:37:23;;;;;;;9.38;3.25;;;2.50;1.00;;;;;;5072960;28;20221;-80
2021/04/14 03:39:51;;;;;;;9.65;3.13;;;2.50;1.00;;;;;;5071456;28;20224;-80
2021/04/14 03:42:17;;;;;;;10.88;3.67;;;2.50;1.00;;;;;;5062184;28;20225;-80
2021/04/14 03:44:46;;;;;;;6.10;2.97;;;2.50;1.00;;;;;;5048872;28;20226;-81
2021/04/14 03:47:12;;;;;;;8.05;2.75;;;2.50;1.00;;;;;;5052001;28;20222;-80
2021/04/14 03:49:39;;;;;;;15.93;4.10;;;2.50;1.00;;;;;;5058874;28;20248;-80
2021/04/14 03:52:06;;;;;;;7.35;3.70;;;2.50;1.00;;;;;;5060305;28;20217;-81
2021/04/14 03:54:32;;;;;;;6.60;3.70;;;2.50;1.00;;;;;;5060663;28;20225;-80
2021/04/14 03:57:00;;;;;;;12.60;3.15;;;2.50;1.00;;;;;;5058410;28;20232;-79
2021/04/14 03:59:26;;;;;;;6.47;2.50;;;2.50;1.00;;;;;;5048844;28;20221;-80
2021/04/14 04:01:54;;;;;;;7.70;3.22;;;2.50;1.00;;;;;;5049428;28;20237;-82
2021/04/14 04:04:20;;;;;;;9.23;3.00;;;2.40;1.00;;;;;;5047609;28;20221;-82
2021/04/14 04:06:47;;;;;;;21.38;4.88;;;2.40;1.00;;;;;;5048888;28;20252;-83
2021/04/14 04:09:13;;;;;;;5.85;2.50;;;2.40;1.00;;;;;;5053861;28;20257;-81
2021/04/14 04:11:40;;;;;;;10.35;3.92;;;2.40;1.00;;;;;;5051423;28;20948;-82
2021/04/14 04:14:07;;;;;;;9.32;4.30;;;2.40;1.00;;;;;;5048794;28;20393;-82
2021/04/14 04:16:34;;;;;;;10.57;3.70;;;2.40;1.00;;;;;;5056459;28;20866;-81
2021/04/14 04:19:01;;;;;;;11.38;3.08;;;2.30;1.00;;;;;;5055356;28;20357;-81
2021/04/14 04:21:28;;;;;;;7.78;3.90;;;2.40;1.00;;;;;;5047726;28;20229;-81
2021/04/14 04:23:54;;;;;;;8.50;4.00;;;2.30;1.00;;;;;;5053141;28;20233;-81
2021/04/14 04:26:21;;;;;;;6.85;3.15;;;2.40;1.00;;;;;;5058814;28;20244;-81
2021/04/14 04:28:47;;;;;;;14.23;6.10;;;2.30;1.00;;;;;;5071651;28;20230;-82
2021/04/14 04:31:15;;;;;;;5.93;3.25;;;2.40;1.00;;;;;;5069701;28;20289;-81
2021/04/14 04:33:41;;;;;;;10.20;3.40;;;2.40;1.00;;;;;;5067321;28;20233;-81
2021/04/14 04:36:11;;;;;;;9.77;4.00;;;2.40;1.00;;;;;;5066792;28;20238;-83
2021/04/14 04:38:37;;;;;;;8.23;3.33;;;2.40;1.00;;;;;;5058616;28;20221;-80
2021/04/14 04:41:04;;;;;;;7.82;3.20;;;2.40;1.00;;;;;;5060239;28;20237;-80
2021/04/14 04:43:31;;;;;;;19.10;5.35;;;2.40;1.00;;;;;;5054540;28;20230;-81
2021/04/14 04:45:57;;;;;;;9.93;3.83;;;2.40;1.00;;;;;;5054439;28;20233;-82
2021/04/14 04:48:26;;;;;;;11.05;4.20;;;2.40;1.00;;;;;;5061821;28;20230;-83
2021/04/14 04:50:53;;;;;;;15.23;3.60;;;2.40;1.00;;;;;;5060033;28;20240;-81
2021/04/14 04:53:22;;;;;;;11.52;4.18;;;2.40;1.00;;;;;;5047499;28;20234;-79
2021/04/14 04:55:50;;;;;;;11.73;3.97;;;2.50;1.00;;;;;;5057331;28;20226;-82
2021/04/14 04:58:17;;;;;;;12.82;4.00;;;2.50;1.00;;;;;;5054389;28;20226;-81
2021/04/14 05:00:44;;;;;;;15.88;4.25;;;2.50;1.00;;;;;;5058277;28;20228;-81
2021/04/14 05:03:13;;;;;;;13.55;4.32;;;2.50;1.00;;;;;;5057301;28;20281;-80
2021/04/14 05:05:41;;;;;;;11.38;4.30;;;2.50;1.00;;;;;;5061923;28;20244;-81
2021/04/14 05:08:09;;;;;;;10.43;3.95;;;2.60;1.00;;;;;;5071005;28;20221;-80
2021/04/14 05:10:36;;;;;;;12.52;3.83;;;2.60;1.00;;;;;;5062332;28;20248;-80
2021/04/14 05:13:04;;;;;;;4.18;3.38;;;2.60;1.00;;;;;;5061249;28;20222;-81
2021/04/14 05:15:33;;;;;;;12.98;5.28;;;2.60;1.00;;;;;;5069504;28;20212;-81
2021/04/14 05:18:01;;;;;;;8.18;3.85;;;2.70;1.00;;;;;;5067939;28;20301;-82
2021/04/14 05:20:28;;;;;;;9.18;4.45;;;2.70;1.00;;;;;;5064526;28;20210;-81
2021/04/14 05:22:56;;;;;;;14.18;4.55;;;2.80;1.00;;;;;;5064939;28;20222;-80
2021/04/14 05:25:26;;;;;;;9.85;4.90;;;2.80;1.00;;;;;;5086066;28;20251;-80
2021/04/14 05:27:54;;;;;;;9.88;3.70;;;2.90;1.00;;;;;;5061454;28;20222;-81
2021/04/14 05:30:23;;;;;;;9.60;3.63;;;2.90;1.00;;;;;;5055914;28;20332;-82
2021/04/14 05:32:50;;;;;;;10.35;4.65;;;3.00;1.00;;;;;;5042402;28;20221;-81
2021/04/14 05:35:18;;;;;;;9.10;4.72;;;3.00;1.00;;;;;;5046974;28;20245;-83
2021/04/14 05:37:45;;;;;;;14.07;6.07;;;3.10;1.00;;;;;;5062772;28;20245;-82
2021/04/14 05:40:16;;;;;;;12.52;4.65;;;3.20;1.00;;;;;;5051027;28;20324;-81
2021/04/14 05:42:47;;;;;;;12.20;4.30;;;3.30;1.00;;;;;;5046218;28;20228;-81
2021/04/14 05:45:20;;;;;;;18.42;5.38;;;3.40;1.00;;;;;;5051585;28;20218;-79
2021/04/14 05:47:47;;;;;;;9.57;4.82;;;3.40;1.00;;;;;;5048336;28;20229;-81
2021/04/14 05:53:00;;;;;;;9.98;4.38;;;3.50;1.00;;;;;;5071858;28;20206;-81
2021/04/14 05:55:28;;;;;;;10.90;6.15;;;3.50;1.00;;;;;;5058658;28;20280;-83
2021/04/14 05:57:55;;;;;;;9.80;5.22;;;3.40;1.00;;;;;;5047963;28;20311;-82
2021/04/14 06:00:29;;;;;;;9.18;4.90;;;3.40;1.00;;;;;;5051568;28;20281;-81
2021/04/14 06:02:57;;;;;;;9.80;4.57;;;3.40;1.00;;;;;;5053143;28;20226;-80
2021/04/14 06:05:25;;;;;;;12.70;4.90;;;3.40;1.00;;;;;;5067210;28;20217;-81
2021/04/14 06:07:52;;;;;;;6.70;3.95;;;3.40;1.00;;;;;;5058366;28;20329;-82
2021/04/14 06:10:21;;;;;;;13.77;4.63;;;3.40;1.00;;;;;;5062972;28;20252;-81
2021/04/14 06:12:51;;;;;;;9.93;5.15;;;3.50;1.00;;;;;;5060837;28;20237;-81
2021/04/14 06:15:21;;;;;;;12.20;4.65;;;3.50;1.00;;;;;;5061103;28;21123;-83
2021/04/14 06:17:48;;;;;;;11.10;4.40;;;3.50;1.00;;;;;;5069507;28;20226;-80
2021/04/14 06:20:21;;;;;;;12.18;5.40;;;3.50;1.00;;;;;;5060448;28;20233;-81
2021/04/14 06:22:52;;;;;;;14.43;5.07;;;3.60;1.00;;;;;;5055702;28;20225;-81
2021/04/14 06:25:23;;;;;;;10.20;5.07;;;3.70;1.00;;;;;;5042346;28;20229;-81
2021/04/14 06:27:53;;;;;;;11.55;4.85;;;3.70;1.00;;;;;;5047820;28;20339;-81
2021/04/14 06:30:23;;;;;;;9.45;4.82;;;3.70;1.00;;;;;;5050870;28;20253;-79
2021/04/14 06:32:50;;;;;;;14.80;4.80;;;3.80;1.00;;;;;;5054536;28;20233;-81
2021/04/14 06:35:21;;;;;;;9.05;4.78;;;3.80;1.00;;;;;;5053983;28;20430;-82
2021/04/14 06:37:48;;;;;;;17.95;5.03;;;3.80;1.00;;;;;;5046583;28;20284;-80
2021/04/14 06:40:40;;;;;;;14.80;5.45;;;3.90;1.00;;;;;;5052656;28;20228;-84
2021/04/14 06:43:16;;;;;;;10.70;5.18;;;3.90;1.00;;;;;;5047142;28;20221;-80
2021/04/14 06:45:45;;;;;;;14.65;7.05;;;4.00;1.00;;;;;;5053289;28;20229;-82
2021/04/14 06:48:24;;;;;;;11.73;5.57;;;4.10;1.00;;;;;;5051435;28;20233;-83
2021/04/14 06:50:59;;;;;;;9.73;5.20;;;4.20;1.00;;;;;;5051215;28;20240;-81
2021/04/14 06:53:37;;;;;;;10.27;5.05;;;4.30;1.00;;;;;;5061650;28;20323;-82
2021/04/14 06:56:07;;;;;;;14.27;5.80;;;4.30;1.00;;;;;;5066470;28;20264;-80
2021/04/14 06:58:42;;;;;;;8.45;4.60;;;4.40;1.00;;;;;;5061364;28;20221;-81
2021/04/14 07:01:13;;;;;;;12.18;5.50;;;4.50;1.00;;;;;;5053026;28;20236;-81
2021/04/14 07:03:47;;;;;;;11.90;4.38;;;4.60;1.00;;;;;;5054359;28;20225;-82
2021/04/14 07:06:18;;;;;;;10.15;4.93;;;4.80;1.00;;;;;;5052464;28;20222;-81
2021/04/14 07:08:51;;;;;;;8.65;4.80;;;4.90;1.00;;;;;;5058659;28;20226;-83
2021/04/14 07:11:21;;;;;;;12.77;6.25;;;5.00;1.00;;;;;;5059019;28;20833;-83
2021/04/14 07:13:50;;;;;;;11.80;4.20;;;5.20;1.00;;;;;;5054736;28;20221;-83
2021/04/14 07:16:44;;;;;;;11.57;6.05;;;5.40;1.00;;;;;;5055872;28;20226;-82
2021/04/14 07:19:25;;;;;;;14.48;6.13;;;5.50;1.00;;;;;;5048445;28;21377;-81
2021/04/14 07:21:58;;;;;;;9.55;5.78;;;5.60;1.00;;;;;;5070181;28;20214;-82
2021/04/14 07:24:30;;;;;;;23.48;19.48;;;5.80;1.00;;;;;;5060054;28;20281;-80
2021/04/14 07:27:01;;;;;;;13.82;5.80;;;6.00;1.00;;;;;;5053445;28;20209;-82
2021/04/14 07:29:36;;;;;;;10.63;4.10;;;6.20;1.00;;;;;;5050970;28;20240;-85
2021/04/14 07:32:12;;;;;;;11.20;4.78;;;6.40;1.00;;;;;;5053947;28;20294;-81
2021/04/14 07:34:51;;;;;;;12.75;6.60;;;6.70;1.00;;;;;;5055040;28;20426;-81
2021/04/14 07:37:25;;;;;;;9.23;4.47;;;7.10;1.00;;;;;;5055203;28;20285;-82
2021/04/14 07:40:02;;;;;;;7.72;4.63;;;7.20;1.00;;;;;;5051038;28;20224;-81
2021/04/14 07:42:36;;;;;;;8.10;5.13;;;7.50;1.00;;;;;;5049300;28;20224;-81
2021/04/14 07:45:11;;;;;;;9.25;6.55;;;7.70;1.00;;;;;;5059660;28;20229;-82
2021/04/14 07:47:43;;;;;;;12.65;5.18;;;7.80;1.00;;;;;;5049402;28;21067;-82
2021/04/14 07:50:13;;;;;;;13.55;4.55;;;8.00;1.00;;;;;;5055289;28;20276;-82
2021/04/14 07:52:42;;;;;;;9.57;4.78;;;8.00;1.00;;;;;;5060975;28;20228;-80
2021/04/14 07:55:32;;;;;;;10.50;4.80;;;7.70;1.00;;;;;;5057176;28;20229;-80
2021/04/14 07:58:07;;;;;;;11.02;5.53;;;7.60;1.00;;;;;;5055390;28;20326;-81
2021/04/14 08:00:38;;;;;;;12.85;5.00;;;7.40;1.00;;;;;;5054731;28;20331;-81
2021/04/14 08:03:13;;;;;;;7.57;4.20;;;7.50;1.00;;;;;;5042542;28;23470;-83
2021/04/14 08:05:40;;;;;;;13.77;5.00;;;7.90;1.00;;;;;;5043452;28;20234;-83
2021/04/14 08:08:20;;;;;;;12.20;4.47;;;8.20;1.00;;;;;;5045103;28;20233;-82
2021/04/14 08:11:02;;;;;;;9.98;5.05;;;8.40;1.00;;;;;;5038836;28;20233;-81
2021/04/14 08:13:35;;;;;;;10.45;4.10;;;8.60;1.00;;;;;;5040466;28;20436;-78
2021/04/14 08:16:11;;;;;;;9.77;5.15;;;8.80;1.00;;;;;;5039419;28;20228;-78
2021/04/14 08:18:38;;;;;;;11.05;4.63;;;9.20;1.00;;;;;;5047747;28;20211;-76
2021/04/14 08:21:13;;;;;;;7.60;4.57;;;9.60;1.00;;;;;;5041795;28;20218;-79
2021/04/14 08:23:51;;;;;;;13.15;4.60;;;9.90;1.00;;;;;;5042691;28;20222;-79
2021/04/14 08:26:20;;;;;;;8.75;4.20;;;10.10;1.00;;;;;;5037135;28;20233;-77
2021/04/14 08:28:55;;;;;;;16.13;14.50;;;10.20;1.00;;;;;;5037014;28;20260;-82
2021/04/14 08:31:35;;;;;;;11.82;4.20;;;10.20;1.00;;;;;;5038001;28;20219;-80
2021/04/14 08:34:15;;;;;;;11.07;4.70;;;9.90;1.00;;;;;;5048184;28;20227;-77
2021/04/14 08:36:50;;;;;;;9.68;4.30;;;9.60;1.00;;;;;;5039704;28;20610;-76
2021/04/14 08:39:25;;;;;;;11.52;4.85;;;9.60;1.00;;;;;;5044738;28;20291;-80
2021/04/14 08:41:52;;;;;;;8.55;4.05;;;9.80;1.00;;;;;;5042768;28;20221;-80
2021/04/14 08:44:32;;;;;;;9.43;4.90;;;10.00;1.00;;;;;;5045407;28;20360;-78
2021/04/14 08:47:12;;;;;;;13.57;4.30;;;10.30;1.00;;;;;;5046880;28;21323;-79
2021/04/14 08:49:39;;;;;;;9.13;4.00;;;10.40;1.00;;;;;;5054516;28;20243;-81
2021/04/14 08:52:09;;;;;;;16.07;4.63;;;10.50;1.00;;;;;;5060681;28;20463;-75
2021/04/14 08:54:36;;;;;;;5.45;3.40;;;10.70;1.00;;;;;;5063756;28;20426;-78
2021/04/14 08:57:06;;;;;;;9.63;3.53;;;10.90;1.00;;;;;;5065327;28;21208;-79
2021/04/14 08:59:33;;;;;;;6.60;3.13;;;11.10;1.00;;;;;;5059847;28;20226;-75
2021/04/14 09:02:03;;;;;;;12.52;9.68;;;11.20;1.00;;;;;;5067751;28;20441;-80
2021/04/14 09:04:30;;;;;;;11.60;3.70;;;11.00;1.00;;;;;;5064606;28;20234;-79
2021/04/14 09:06:58;;;;;;;9.30;5.00;;;10.90;1.00;;;;;;5064749;28;20232;-77
2021/04/14 09:09:27;;;;;;;6.57;3.40;;;10.80;1.00;;;;;;5058668;28;20421;-75
2021/04/14 09:11:59;;;;;;;7.45;4.35;;;10.90;1.00;;;;;;5066452;28;20434;-80
2021/04/14 09:14:29;;;;;;;7.50;3.38;;;11.30;1.00;;;;;;5068252;28;20253;-75
2021/04/14 09:16:59;;;;;;;5.15;2.30;;;11.60;1.00;;;;;;5068512;28;20214;-80
2021/04/14 09:20:06;;;;;;;5.37;2.57;;;11.80;1.00;;;;;;5074915;28;20218;-81
2021/04/14 09:22:36;;;;;;;9.03;2.90;;;12.00;1.00;;;;;;5086010;28;20428;-81
2021/04/14 09:25:34;;;;;;;12.02;4.10;;;12.00;1.00;;;;;;5071066;28;20447;-81
2021/04/14 09:28:31;;;;;;;3.63;2.63;;;12.40;1.00;;;;;;5071568;28;20248;-81
2021/04/14 09:31:14;;;;;;;6.63;2.93;;;12.40;1.00;;;;;;5073149;28;20408;-81
2021/04/14 09:33:47;;;;;;;9.50;3.30;;;12.10;1.00;;;;;;5075450;28;20430;-82
2021/04/14 09:36:30;;;;;;;9.67;3.27;;;11.90;1.00;;;;;;5081169;28;20435;-82
2021/04/14 09:39:08;;;;;;;7.80;3.67;;;11.50;1.00;;;;;;5073009;28;20411;-81
2021/04/14 09:41:37;;;;;;;8.37;2.60;;;11.90;1.00;;;;;;5073001;28;20460;-82
2021/04/14 09:44:38;;;;;;;9.90;2.73;;;12.00;1.00;;;;;;5075348;28;20452;-83
2021/04/14 09:47:20;;;;;;;8.37;4.00;;;11.90;1.00;;;;;;5083238;28;20495;-81
2021/04/14 09:49:49;;;;;;;8.70;3.87;;;11.80;1.00;;;;;;5066450;28;20501;-81
2021/04/14 09:54:56;;;;;;;7.80;3.27;;;12.00;1.00;;;;;;5082228;22;21009;-81
2021/04/14 09:57:28;;;;;;;9.47;3.20;;;12.60;1.00;;;;;;5079594;28;20444;-82
2021/04/14 09:59:57;;;;;;;7.40;2.90;;;14.60;1.00;;;;;;5066548;28;20470;-79
2021/04/14 10:02:26;;;;;;;5.90;3.67;;;16.60;1.00;;;;;;5072952;28;20579;-81
2021/04/14 10:04:53;;;;;;;4.57;2.37;;;18.10;1.00;;;;;;5068479;28;20451;-78
2021/04/14 10:07:24;;;;;;;16.23;6.53;;;19.00;1.00;;;;;;5083870;28;20427;-77
2021/04/14 10:09:50;;;;;;;23.20;6.40;;;20.30;1.00;;;;;;5071548;28;20421;-79
2021/04/14 10:12:19;;;;;;;41.97;10.40;;;21.10;1.00;;;;;;5066446;28;20420;-78
2021/04/14 10:14:48;;;;;;;8.43;3.70;;;21.60;1.00;;;;;;5066243;28;20558;-78
2021/04/14 10:17:19;;;;;;;7.87;3.20;;;22.70;1.00;;;;;;5061413;28;20429;-78
2021/04/14 10:19:51;;;;;;;15.37;3.10;;;22.90;1.00;;;;;;5056507;28;20454;-78
2021/04/14 10:22:22;;;;;;;4.60;2.80;;;21.90;1.00;;;;;;5074268;28;20471;-77
2021/04/14 10:24:48;;;;;;;10.20;3.40;;;20.10;1.00;;;;;;5079825;28;20976;-78
2021/04/14 10:27:20;;;;;;;4.00;2.27;;;18.30;1.00;;;;;;5086085;28;20479;-77
2021/04/14 10:29:46;;;;;;;5.07;2.77;;;16.30;1.00;;;;;;5068846;28;23988;-79
2021/04/14 10:32:19;;;;;;;6.83;2.90;;;15.20;1.00;;;;;;5062781;28;21443;-77
2021/04/14 10:34:46;;;;;;;11.33;3.43;;;14.80;1.00;;;;;;5063331;28;20525;-78
2021/04/14 10:37:15;;;;;;;5.83;2.30;;;15.80;1.00;;;;;;5069962;28;20492;-78
2021/04/14 10:39:45;;;;;;;9.90;3.40;;;17.70;1.00;;;;;;5089366;28;20455;-77
2021/04/14 10:42:17;;;;;;;6.07;2.20;;;19.30;1.00;;;;;;5063726;28;20470;-78
2021/04/14 10:44:46;;;;;;;6.07;2.90;;;19.10;1.00;;;;;;5062446;28;20841;-78
2021/04/14 10:47:19;;;;;;;3.70;2.33;;;18.10;1.00;;;;;;5069543;28;20448;-78
2021/04/14 10:49:46;;;;;;;15.10;3.63;;;16.80;1.00;;;;;;5062559;28;20564;-78
2021/04/14 10:52:19;;;;;;;6.10;3.10;;;16.30;1.00;;;;;;5084551;28;20855;-78
2021/04/14 10:54:48;;;;;;;5.50;2.00;;;15.90;1.00;;;;;;5064038;28;20544;-75
2021/04/14 10:57:21;;;;;;;7.00;2.03;;;15.70;1.00;;;;;;5064586;28;21354;-79
2021/04/14 10:59:49;;;;;;;10.77;3.60;;;16.30;1.00;;;;;;5058555;28;20456;-77
2021/04/14 11:02:21;;;;;;;6.40;2.80;;;16.80;1.00;;;;;;5063061;28;20434;-78
2021/04/14 11:04:47;;;;;;;3.97;1.93;;;16.60;1.00;;;;;;5052218;28;20592;-78
2021/04/14 11:07:20;;;;;;;5.37;2.17;;;16.80;1.00;;;;;;5065991;28;20411;-78
2021/04/14 11:09:48;;;;;;;4.23;2.40;;;17.90;1.00;;;;;;5047563;28;20488;-77
2021/04/14 11:12:19;;;;;;;5.13;1.70;;;18.00;1.00;;;;;;5057654;28;20451;-79
2021/04/14 11:14:49;;;;;;;6.60;2.40;;;17.10;1.00;;;;;;5055073;28;20432;-79
2021/04/14 11:17:20;;;;;;;9.30;8.10;;;16.40;1.00;;;;;;5060142;28;20441;-77
2021/04/14 11:19:57;;;;;;;4.93;2.70;;;16.00;1.00;;;;;;5064484;28;20736;-78
2021/04/14 11:22:24;;;;;;;4.40;1.90;;;16.30;1.00;;;;;;5076792;28;20517;-78
2021/04/14 11:24:52;;;;;;;5.90;2.30;;;17.80;1.00;;;;;;5079157;28;20459;-78
2021/04/14 11:27:21;;;;;;;3.33;2.03;;;19.70;1.00;;;;;;5088628;28;20484;-78
2021/04/14 11:29:49;;;;;;;4.50;1.80;;;20.60;1.00;;;;;;5067400;28;20433;-79
2021/04/14 11:32:19;;;;;;;2.83;1.47;;;21.00;1.00;;;;;;5063909;28;20427;-78
2021/04/14 11:34:59;;;;;;;4.87;1.57;;;20.70;1.00;;;;;;5074144;28;20463;-77
2021/04/14 11:37:41;;;;;;;4.80;2.10;;;19.60;1.00;;;;;;5087564;28;21384;-78
2021/04/14 11:40:41;;;;;;;8.23;2.37;;;18.80;1.00;;;;;;5074194;28;21806;-78
2021/04/14 11:43:26;;;;;;;3.23;1.60;;;20.10;1.00;;;;;;5059617;28;20538;-77
2021/04/14 11:45:59;;;;;;;6.03;1.73;;;21.50;1.00;;;;;;5064424;28;20484;-76
2021/04/14 11:48:36;;;;;;;5.37;2.30;;;20.90;1.00;;;;;;5065641;28;20411;-78
2021/04/14 11:51:27;;;;;;;4.57;2.20;;;19.60;1.00;;;;;;5061574;28;20482;-78
2021/04/14 11:53:56;;;;;;;3.20;1.60;;;18.30;1.00;;;;;;5067347;28;20437;-79
2021/04/14 11:56:33;;;;;;;5.95;2.40;;;17.50;1.00;;;;;;5073372;28;20512;-80
2021/04/14 11:59:00;;;;;;;6.63;3.57;;;16.20;1.00;;;;;;5066312;28;20225;-77
2021/04/14 12:01:29;;;;;;;3.00;2.00;;;15.20;1.00;;;;;;5069646;28;21052;-77
2021/04/14 12:03:56;;;;;;;6.00;2.67;;;14.50;1.00;;;;;;5074914;28;20376;-79
2021/04/14 12:06:23;;;;;;;11.27;3.37;;;14.10;1.00;;;;;;5079239;28;20232;-81
2021/04/14 12:08:49;;;;;;;3.20;2.60;;;13.70;1.00;;;;;;5079252;28;20484;-79
2021/04/14 12:11:20;;;;;;;4.83;2.60;;;13.40;1.00;;;;;;5071157;28;20608;-79
2021/04/14 12:13:46;;;;;;;5.33;2.50;;;13.20;1.00;;;;;;5082710;28;20414;-77
2021/04/14 12:16:13;;;;;;;5.33;2.80;;;12.90;1.00;;;;;;5084152;28;20440;-74
2021/04/14 12:18:41;;;;;;;3.73;1.60;;;12.80;1.00;;;;;;5078045;28;20441;-78
2021/04/14 12:21:07;;;;;;;5.43;2.23;;;12.80;1.00;;;;;;5076199;28;20554;-79
2021/04/14 12:23:34;;;;;;;6.37;2.40;;;12.80;1.00;;;;;;5086932;28;20474;-80
2021/04/14 12:26:00;;;;;;;9.77;7.27;;;12.90;1.00;;;;;;5086428;28;20478;-80
2021/04/14 12:28:26;;;;;;;4.33;2.00;;;13.50;1.00;;;;;;5069686;28;20444;-78
2021/04/14 12:30:53;;;;;;;3.93;2.10;;;14.40;1.00;;;;;;5072012;28;20498;-76
2021/04/14 12:33:19;;;;;;;4.88;2.40;;;15.30;1.00;;;;;;5066251;28;20383;-76
2021/04/14 12:35:47;;;;;;;2.73;1.60;;;15.80;1.00;;;;;;5068861;28;20215;-80
2021/04/14 12:38:14;;;;;;;6.10;3.10;;;15.90;1.00;;;;;;5081711;28;20568;-81
2021/04/14 12:40:40;;;;;;;4.83;3.60;;;15.60;1.00;;;;;;5078885;28;20443;-79
2021/04/14 12:43:07;;;;;;;3.83;2.27;;;15.10;1.00;;;;;;5079054;28;20419;-86
2021/04/14 12:45:40;;;;;;;6.53;2.63;;;14.50;1.00;;;;;;5072210;28;20458;-85
2021/04/14 12:48:11;;;;;;;5.10;2.27;;;13.80;1.00;;;;;;5072764;28;20458;-88
2021/04/14 12:50:37;;;;;;;3.90;1.97;;;13.20;1.00;;;;;;5096745;28;20440;-80
2021/04/14 12:53:11;;;;;;;3.77;1.70;;;12.80;1.00;;;;;;5079358;28;20400;-84
2021/04/14 12:55:46;;;;;;;5.30;1.83;;;12.50;1.00;;;;;;5082483;28;20461;-83
2021/04/14 12:58:22;;;;;;;3.53;2.07;;;12.50;1.00;;;;;;5067264;28;23362;-81
2021/04/14 13:00:49;;;;;;;3.63;1.80;;;12.40;1.00;;;;;;5073508;28;20487;-82
2021/04/14 13:03:26;;;;;;;11.13;2.97;;;12.40;1.00;;;;;;5070984;28;20447;-78
2021/04/14 13:06:13;;;;;;;6.30;1.90;;;12.80;1.00;;;;;;5081332;28;20486;-86
2021/04/14 13:08:42;;;;;;;5.27;2.07;;;13.70;1.00;;;;;;5068823;28;20993;-82
2021/04/14 13:11:18;;;;;;;11.77;5.20;;;14.20;1.00;;;;;;5082559;28;20450;-85
2021/04/14 13:13:46;;;;;;;4.77;2.10;;;14.50;1.00;;;;;;5082282;28;20434;-78
2021/04/14 13:16:18;;;;;;;5.83;2.27;;;14.80;1.00;;;;;;5105273;27;20447;-79
2021/04/14 13:18:49;;;;;;;4.40;1.93;;;15.40;1.00;;;;;;5440592;22;21264;-79
2021/04/14 13:21:25;;;;;;;4.90;2.25;;;16.00;1.00;;;;;;5065664;28;20848;-81
2021/04/14 13:24:04;;;;;;;5.80;1.53;;;16.30;1.00;;;;;;5049676;28;20480;-77
2021/04/14 13:26:35;;;;;;;3.83;1.70;;;16.50;1.00;;;;;;5059202;28;20464;-77
2021/04/14 13:29:06;;;;;;;2.70;2.00;;;16.50;1.00;;;;;;5053676;28;21284;-75
2021/04/14 13:31:36;;;;;;;3.20;2.80;;;16.20;1.00;;;;;;5045376;28;20462;-78